Kamiah, ID (83536)

10:56 AM PDT on October 23, 2014 (GMT -0700)
Ash Street Kamiah | Change Station
CLOSE
Current Station
Personal Weather Station
Location: Kamiah, ID
Elevation: 1224 ft
Nearby Weather Stations

Elev 1224 ft 46.22 °N, 116.03 °W | Updated 2 seconds ago

Partly Cloudy
Partly Cloudy
57.9 °F
Feels Like 57.9 °F
N
0.0
Wind Variable Wind from NNW
Gusts 0.0 mph

Today
High -- | Low -- °F
--% Chance of Precip.
Yesterday
High -- | Low -- °F
Precip. -- in
7:12 AM 5:43 PM
Waning Crescent, 0% visible
Pressure 29.79 in
Visibility 10.0 miles
Clouds Mostly Cloudy 10000 ft
Dew Point 50 °F
Humidity 76%
Rainfall 0.00 in
Snow Depth Not available.
UV 1 out of 12
Pollen .40 out of 12
PM2.5 Good
Flu Activity Sporadic
METAR KLWS 231656Z 08008KT 10SM BKN100 14/09 A2980 RMK AO2 SLP088 T01390094 $

More Conditions Fewer Conditions

Pressure 29.79 in
Visibility 10.0 miles
Clouds Mostly Cloudy 10000 ft
Dew Point 50 °F
Humidity 76%
Rainfall 0.00 in
Snow Depth Not available.
UV 1 out of 12
Pollen .40 out of 12
PM2.5 Good
Flu Activity Sporadic
METAR KLWS 231656Z 08008KT 10SM BKN100 14/09 A2980 RMK AO2 SLP088 T01390094 $

More Conditions Fewer Conditions

10-Day Weather Forecast

Almanac

Astronomy

Oct. 23, 2014 Rise Set
Actual Time 7:12 AM PDT 5:43 PM PDT
Civil Twilight 6:41 AM PDT 6:14 PM PDT
Nautical Twilight 6:06 AM PDT 6:49 PM PDT
Astronomical Twilight 5:31 AM PDT 7:23 PM PDT
Moon 6:55 AM PDT 5:47 PM PDT
Length of Visible Light 11h 32m
Length of Day
10h 31m
Tomorrow will be 3m 5s shorter.
Waning Crescent, 0% of the Moon is Illuminated
Today
Waning Crescent
Oct 23
New
Oct 30
First Quarter
Nov 6
Full
Nov 14
Last Quarter

Today's Extremes

State Highs State Lows

Community

WunderPhotos

Upload Photos

1,764,322 photos uploaded!

WunderBlogs® & News

By Dr. Jeff Masters
Director of Meteorology, Weather Underground
By Kari Strenfel
Meteorologist, Weather Underground
By Christopher C. Burt
Weather Historian, Weather Underground
October 23, 2014
October 23, 2014
October 23, 2014

Nearby

Air Quality

  Air Quality AQ Index Pollutant
Current Good
PM2.5
Thursday Good
PM2.5
Friday Good
PM2.5
Saturday Good
PM2.5

Snow Depth

Station Depth Elevation
Hemlock Butte 1 in 5810 ft
Crater Meadows 0 in 5960 ft
Elk Butte 0 in 5690 ft
Sherwin 0 in 3200 ft
Moscow Mountain 1 in 4700 ft

Earthquake Activity

City Distance Mag. Time & Date
No recent earthquake activity has been reported nearby.
Minimum magnitude displayed is 2.5.

Coastal Water Temperatures

Place Temperature
No Stations Reporting

Nearby Weather Stations